Aldbourne, United Kingdom
Current Conditions -  °F | °C
As of 6:38 AM on Tuesday 21 Oct 2014 (Local Time) from EGVA Reporting Station
Light Rain Light Rain  
Wind Chill: 55°   Ceiling: 1700
Heat Index: 55°   Visibility: 6mi
Dew Point: 52°   Wind: 23mph
Humidity: 88%   Direction: 240°WSW
Pressure: 29.51"   Gusts: 33mph
Location:  51.48°N, 1.62°W
Report Text: EGVA 210538Z AUTO 24020G29KT 9999 -RA BKN017 OVC021 13/11 A2951 RMK AO2 CIG 015V021
Loading
Personal Weather Stations






























Interactive Weather Map
Tropical Storm Tracking
New forecast layout! Learn more

10-Day Weather Forecast

Advertisements
Track Severe Weather on mobile